Terminal Aerodrome Forecast
Issued by NWS Sioux Falls, SD

Home | Current Version | Previous Version | Text Only | Print | Product List | Glossary On
Versions: 1 2 3 4 5 6 7 8 9 10 11 12 13
000
FTUS43 KFSD 200520
TAFSUX
TAF
KSUX 200520Z 2006/2106 VRB03KT P6SM FEW250
     FM201400 28007KT P6SM FEW200
     FM201700 32010KT P6SM SCT120
     FM202300 01007KT P6SM SCT100
     FM210300 07005KT P6SM SCT090=

USA.gov is the U.S. government's official web portal to all federal, state and local government web resources and services.